Decoded Metar for KMMT (MCENTIRE ANG BAS in SC, USA) (IATA:MMT) | Meteo·Mobile Aviation Weather
aviador You're here:

KMMT Decoded Metar

MCENTIRE ANG BAS in SC, USA
Report Time2019-04-23 14:56:00
UTC Time2019-04-23 15:53:56
Flight Rules vfr VFR
Wind210° at 05 kt
W.Decomp.*RWY 23: 4.8 kt HW 1.3 kt LCW
RWY 18: 4.1 kt HW 2.9 kt RCW
RWY 14: 1.3 kt HW 4.8 kt RCW
Visibility9999 m
Phenomena:N/A
Clouds:Few 250 Hf
Expected CloudBase > 4,400 ft AGL from Temp-Dew spread
CeilingNone
Temp24°C (ISA +10)
Dew Point13°C (50% RH)
AAT23.1°C
QNH1020 hPa
Density Alt1,322 ft
Elevation253 ft
Report Wrong Elevation
Raw Report
KMMT 231456Z 21005KT 10SM FEW250 24/13 A3012 RMK AO2A SLP201 60000
T02380127 58000 $=

Extra information for KMMT:More info

Metar Taf Metar & Taf Last 4 Metars F.Rules Stats Wind Profile Meteogram Temp Stats Airport Information Weather charts Add Link Nearby VenuesMetar ALERT Operation Metar Decoded Social comments

AIRNAV info for KMMT